N495CX KEDC-KNEW
Flight info
| Callsign | N495CX |
|---|---|
| Flight time | 1h 0m |
| Altitude | 41000 |
| Route | ILEXY4 ZENZI |
| Aircraft | FA50/M-SDFGHIM1RWXY/H |
Departure
| Time | 2026-04-29 02:49 |
|---|---|
| Airport | Austin Executive Airport (KEDC) |
Arrival
| Time | 2026-04-29 03:50 |
|---|---|
| Airport | Lakefront Airport (KNEW) |
| Time | Latitude | Longitude | Altitude | Speed | Heading |
|---|---|---|---|---|---|
| 2026-04-29 02:35 | 30.39996 | -97.57316 | 620 ft | 0 kts | 1° |
| 2026-04-29 02:47 | 30.40017 | -97.57315 | 620 ft | 8 kts | 8° |
| 2026-04-29 02:47 | 30.40027 | -97.57256 | 618 ft | 6 kts | 96° |
| 2026-04-29 02:47 | 30.40023 | -97.57217 | 618 ft | 3 kts | 90° |
| 2026-04-29 02:47 | 30.40042 | -97.57149 | 616 ft | 13 kts | 54° |
| 2026-04-29 02:48 | 30.40113 | -97.57165 | 615 ft | 15 kts | 311° |
| 2026-04-29 02:48 | 30.40209 | -97.57292 | 615 ft | 26 kts | 309° |
| 2026-04-29 02:48 | 30.40284 | -97.57385 | 613 ft | 0 kts | 337° |
| 2026-04-29 02:48 | 30.40318 | -97.57374 | 612 ft | 12 kts | 37° |
| 2026-04-29 02:49 | 30.40272 | -97.57230 | 611 ft | 51 kts | 131° |
| 2026-04-29 02:49 | 30.39867 | -97.56702 | 608 ft | 119 kts | 131° |
| 2026-04-29 02:49 | 30.39220 | -97.55849 | 791 ft | 145 kts | 131° |
| 2026-04-29 02:49 | 30.38586 | -97.54989 | 1378 ft | 146 kts | 130° |
| 2026-04-29 02:50 | 30.37847 | -97.53946 | 1660 ft | 188 kts | 129° |
| 2026-04-29 02:50 | 30.36937 | -97.52687 | 2072 ft | 217 kts | 131° |
| 2026-04-29 02:50 | 30.35917 | -97.51315 | 2030 ft | 234 kts | 130° |
| 2026-04-29 02:50 | 30.34849 | -97.49845 | 2072 ft | 247 kts | 130° |
| 2026-04-29 02:51 | 30.33733 | -97.48268 | 2842 ft | 259 kts | 130° |
| 2026-04-29 02:51 | 30.32500 | -97.46594 | 3351 ft | 290 kts | 131° |
| 2026-04-29 02:51 | 30.31244 | -97.44916 | 5156 ft | 269 kts | 131° |
| 2026-04-29 02:51 | 30.29986 | -97.43336 | 6336 ft | 273 kts | 140° |
| 2026-04-29 02:52 | 30.28292 | -97.42399 | 7428 ft | 279 kts | 173° |
| 2026-04-29 02:52 | 30.26381 | -97.42373 | 8683 ft | 281 kts | 182° |
| 2026-04-29 02:52 | 30.24453 | -97.42495 | 9889 ft | 286 kts | 183° |
| 2026-04-29 02:52 | 30.22454 | -97.42622 | 11107 ft | 290 kts | 183° |
| 2026-04-29 02:53 | 30.20455 | -97.42743 | 12218 ft | 295 kts | 183° |
| 2026-04-29 02:53 | 30.18402 | -97.42854 | 13373 ft | 297 kts | 183° |
| 2026-04-29 02:53 | 30.16356 | -97.42944 | 14492 ft | 299 kts | 183° |
| 2026-04-29 02:53 | 30.14273 | -97.43012 | 15520 ft | 302 kts | 183° |
| 2026-04-29 02:54 | 30.12186 | -97.43054 | 16498 ft | 305 kts | 183° |
| 2026-04-29 02:54 | 30.10059 | -97.43072 | 17436 ft | 309 kts | 183° |
| 2026-04-29 02:54 | 30.07927 | -97.43059 | 18312 ft | 313 kts | 181° |
| 2026-04-29 02:54 | 30.05762 | -97.42431 | 18761 ft | 342 kts | 158° |
| 2026-04-29 02:55 | 30.03825 | -97.40563 | 18832 ft | 383 kts | 131° |
| 2026-04-29 02:55 | 30.02655 | -97.37665 | 19109 ft | 412 kts | 105° |
| 2026-04-29 02:55 | 30.02616 | -97.34322 | 19816 ft | 424 kts | 81° |
| 2026-04-29 02:55 | 30.03654 | -97.31132 | 20405 ft | 433 kts | 61° |
| 2026-04-29 02:56 | 30.05200 | -97.28119 | 21006 ft | 438 kts | 58° |
| 2026-04-29 02:56 | 30.06787 | -97.25121 | 21572 ft | 444 kts | 58° |
| 2026-04-29 02:56 | 30.08208 | -97.21939 | 22106 ft | 449 kts | 73° |
| 2026-04-29 02:56 | 30.08629 | -97.18389 | 22629 ft | 449 kts | 95° |
| 2026-04-29 02:57 | 30.08061 | -97.14866 | 23052 ft | 453 kts | 105° |
| 2026-04-29 02:57 | 30.07886 | -97.11215 | 23409 ft | 464 kts | 84° |
| 2026-04-29 02:57 | 30.08172 | -97.07460 | 23981 ft | 466 kts | 85° |
| 2026-04-29 02:57 | 30.08304 | -97.03734 | 24459 ft | 471 kts | 86° |
| 2026-04-29 02:58 | 30.08384 | -96.99947 | 24953 ft | 474 kts | 86° |
| 2026-04-29 02:58 | 30.08461 | -96.96133 | 25461 ft | 477 kts | 85° |
| 2026-04-29 02:58 | 30.08539 | -96.92317 | 25919 ft | 480 kts | 85° |
| 2026-04-29 02:58 | 30.08617 | -96.88423 | 26290 ft | 485 kts | 85° |
| 2026-04-29 02:59 | 30.08693 | -96.84502 | 26697 ft | 489 kts | 85° |
| 2026-04-29 02:59 | 30.08769 | -96.80520 | 27092 ft | 492 kts | 84° |
| 2026-04-29 02:59 | 30.08843 | -96.76611 | 27464 ft | 496 kts | 84° |
| 2026-04-29 02:59 | 30.08918 | -96.72598 | 27719 ft | 502 kts | 84° |
| 2026-04-29 03:00 | 30.08994 | -96.68454 | 27742 ft | 514 kts | 85° |
| 2026-04-29 03:00 | 30.09069 | -96.64259 | 27767 ft | 524 kts | 85° |
| 2026-04-29 03:00 | 30.09143 | -96.60046 | 27916 ft | 530 kts | 85° |
| 2026-04-29 03:00 | 30.09215 | -96.55799 | 28303 ft | 530 kts | 85° |
| 2026-04-29 03:01 | 30.09287 | -96.51545 | 28681 ft | 530 kts | 85° |
| 2026-04-29 03:01 | 30.09359 | -96.47279 | 29026 ft | 531 kts | 85° |
| 2026-04-29 03:01 | 30.09427 | -96.43037 | 29393 ft | 531 kts | 85° |
| 2026-04-29 03:01 | 30.09496 | -96.38721 | 29761 ft | 531 kts | 84° |
| 2026-04-29 03:02 | 30.09563 | -96.34482 | 30120 ft | 532 kts | 85° |
| 2026-04-29 03:02 | 30.09629 | -96.30200 | 30409 ft | 533 kts | 85° |
| 2026-04-29 03:02 | 30.09693 | -96.25931 | 30733 ft | 533 kts | 85° |
| 2026-04-29 03:02 | 30.09755 | -96.21659 | 31065 ft | 533 kts | 85° |
| 2026-04-29 03:03 | 30.09817 | -96.17368 | 31384 ft | 534 kts | 85° |
| 2026-04-29 03:03 | 30.09878 | -96.13053 | 31689 ft | 534 kts | 85° |
| 2026-04-29 03:03 | 30.09937 | -96.08726 | 31996 ft | 535 kts | 85° |
| 2026-04-29 03:03 | 30.09994 | -96.04474 | 32330 ft | 535 kts | 85° |
| 2026-04-29 03:04 | 30.10050 | -96.00199 | 32638 ft | 535 kts | 84° |
| 2026-04-29 03:04 | 30.10105 | -95.95869 | 32922 ft | 536 kts | 84° |
| 2026-04-29 03:04 | 30.10159 | -95.91529 | 33238 ft | 536 kts | 84° |
| 2026-04-29 03:04 | 30.10211 | -95.87222 | 33551 ft | 537 kts | 84° |
| 2026-04-29 03:05 | 30.10261 | -95.82950 | 33854 ft | 537 kts | 84° |
| 2026-04-29 03:05 | 30.10312 | -95.78576 | 33976 ft | 542 kts | 84° |
| 2026-04-29 03:05 | 30.10360 | -95.74226 | 34197 ft | 544 kts | 84° |
| 2026-04-29 03:05 | 30.10406 | -95.69889 | 34549 ft | 542 kts | 84° |
| 2026-04-29 03:06 | 30.10451 | -95.65535 | 34921 ft | 541 kts | 84° |
| 2026-04-29 03:06 | 30.10496 | -95.61180 | 35233 ft | 540 kts | 84° |
| 2026-04-29 03:06 | 30.10538 | -95.56863 | 35546 ft | 540 kts | 84° |
| 2026-04-29 03:06 | 30.10579 | -95.52492 | 35874 ft | 539 kts | 84° |
| 2026-04-29 03:07 | 30.10619 | -95.48209 | 36200 ft | 538 kts | 84° |
| 2026-04-29 03:07 | 30.10657 | -95.43818 | 36504 ft | 538 kts | 84° |
| 2026-04-29 03:07 | 30.10693 | -95.39535 | 36811 ft | 537 kts | 84° |
| 2026-04-29 03:07 | 30.10729 | -95.35204 | 37063 ft | 538 kts | 84° |
| 2026-04-29 03:08 | 30.10762 | -95.30900 | 37275 ft | 538 kts | 85° |
| 2026-04-29 03:08 | 30.10794 | -95.26611 | 37548 ft | 538 kts | 85° |
| 2026-04-29 03:08 | 30.10825 | -95.22231 | 37770 ft | 538 kts | 85° |
| 2026-04-29 03:08 | 30.10855 | -95.17953 | 38001 ft | 538 kts | 85° |
| 2026-04-29 03:09 | 30.10883 | -95.13604 | 38234 ft | 538 kts | 85° |
| 2026-04-29 03:09 | 30.10911 | -95.09290 | 38420 ft | 539 kts | 85° |
| 2026-04-29 03:09 | 30.10935 | -95.05006 | 38644 ft | 538 kts | 85° |
| 2026-04-29 03:09 | 30.10959 | -95.00671 | 38896 ft | 538 kts | 85° |
| 2026-04-29 03:10 | 30.10981 | -94.96357 | 39081 ft | 538 kts | 85° |
| 2026-04-29 03:10 | 30.11002 | -94.92058 | 39317 ft | 537 kts | 85° |
| 2026-04-29 03:10 | 30.11022 | -94.87745 | 39532 ft | 537 kts | 85° |
| 2026-04-29 03:10 | 30.11040 | -94.83428 | 39738 ft | 537 kts | 85° |
| 2026-04-29 03:11 | 30.11057 | -94.79165 | 39950 ft | 537 kts | 85° |
| 2026-04-29 03:11 | 30.11072 | -94.74812 | 40140 ft | 537 kts | 85° |
| 2026-04-29 03:11 | 30.11086 | -94.70550 | 40332 ft | 537 kts | 85° |
| 2026-04-29 03:11 | 30.11099 | -94.66225 | 40524 ft | 537 kts | 85° |
| 2026-04-29 03:12 | 30.11110 | -94.61922 | 40714 ft | 537 kts | 85° |
| 2026-04-29 03:12 | 30.11120 | -94.57588 | 40899 ft | 537 kts | 85° |
| 2026-04-29 03:12 | 30.11129 | -94.53279 | 41006 ft | 539 kts | 85° |
| 2026-04-29 03:13 | 30.11142 | -94.44579 | 41000 ft | 548 kts | 85° |
| 2026-04-29 03:13 | 30.11148 | -94.35773 | 40999 ft | 553 kts | 85° |
| 2026-04-29 03:14 | 30.11149 | -94.26899 | 40980 ft | 554 kts | 85° |
| 2026-04-29 03:14 | 30.11144 | -94.17998 | 40981 ft | 554 kts | 85° |
| 2026-04-29 03:15 | 30.11133 | -94.09154 | 40982 ft | 553 kts | 85° |
| 2026-04-29 03:15 | 30.11116 | -94.00279 | 40990 ft | 552 kts | 85° |
| 2026-04-29 03:16 | 30.11093 | -93.91447 | 41002 ft | 551 kts | 85° |
| 2026-04-29 03:16 | 30.11065 | -93.82584 | 41014 ft | 551 kts | 85° |
| 2026-04-29 03:17 | 30.11030 | -93.73811 | 41017 ft | 551 kts | 85° |
| 2026-04-29 03:17 | 30.10990 | -93.64938 | 41019 ft | 551 kts | 85° |
| 2026-04-29 03:18 | 30.10943 | -93.56134 | 41021 ft | 551 kts | 85° |
| 2026-04-29 03:18 | 30.10891 | -93.47267 | 41023 ft | 551 kts | 85° |
| 2026-04-29 03:19 | 30.10833 | -93.38429 | 41024 ft | 552 kts | 85° |
| 2026-04-29 03:19 | 30.10769 | -93.29615 | 41003 ft | 552 kts | 86° |
| 2026-04-29 03:20 | 30.10698 | -93.20765 | 41009 ft | 551 kts | 86° |
| 2026-04-29 03:20 | 30.10622 | -93.11918 | 41011 ft | 550 kts | 86° |
| 2026-04-29 03:21 | 30.10542 | -93.03116 | 41016 ft | 550 kts | 86° |
| 2026-04-29 03:21 | 30.10454 | -92.94268 | 41020 ft | 549 kts | 87° |
| 2026-04-29 03:22 | 30.10363 | -92.85519 | 41024 ft | 548 kts | 87° |
| 2026-04-29 03:22 | 30.10272 | -92.76725 | 41024 ft | 547 kts | 88° |
| 2026-04-29 03:23 | 30.10157 | -92.67982 | 41027 ft | 544 kts | 87° |
| 2026-04-29 03:23 | 30.10047 | -92.59259 | 41025 ft | 542 kts | 87° |
| 2026-04-29 03:24 | 30.09933 | -92.50644 | 41029 ft | 540 kts | 87° |
| 2026-04-29 03:24 | 30.09812 | -92.42004 | 41035 ft | 527 kts | 87° |
| 2026-04-29 03:24 | 30.09752 | -92.37852 | 40555 ft | 520 kts | 87° |
| 2026-04-29 03:25 | 30.09692 | -92.33651 | 39495 ft | 525 kts | 88° |
| 2026-04-29 03:25 | 30.09629 | -92.29427 | 38389 ft | 529 kts | 88° |
| 2026-04-29 03:25 | 30.09563 | -92.25188 | 37478 ft | 530 kts | 88° |
| 2026-04-29 03:25 | 30.09497 | -92.20989 | 36735 ft | 530 kts | 88° |
| 2026-04-29 03:26 | 30.09428 | -92.16695 | 35974 ft | 531 kts | 88° |
| 2026-04-29 03:26 | 30.09359 | -92.12470 | 35172 ft | 532 kts | 88° |
| 2026-04-29 03:26 | 30.09289 | -92.08174 | 34311 ft | 535 kts | 88° |
| 2026-04-29 03:26 | 30.09216 | -92.03896 | 33449 ft | 536 kts | 88° |
| 2026-04-29 03:27 | 30.09141 | -91.99571 | 32691 ft | 535 kts | 88° |
| 2026-04-29 03:27 | 30.09066 | -91.95304 | 31885 ft | 535 kts | 88° |
| 2026-04-29 03:27 | 30.08990 | -91.91038 | 31065 ft | 534 kts | 88° |
| 2026-04-29 03:27 | 30.08911 | -91.86732 | 30245 ft | 533 kts | 88° |
| 2026-04-29 03:28 | 30.08832 | -91.82494 | 29367 ft | 533 kts | 88° |
| 2026-04-29 03:28 | 30.08751 | -91.78195 | 28457 ft | 532 kts | 89° |
| 2026-04-29 03:28 | 30.08670 | -91.73949 | 27541 ft | 531 kts | 89° |
| 2026-04-29 03:28 | 30.08587 | -91.69694 | 26559 ft | 531 kts | 89° |
| 2026-04-29 03:29 | 30.08502 | -91.65472 | 25547 ft | 530 kts | 89° |
| 2026-04-29 03:29 | 30.08417 | -91.61223 | 24467 ft | 529 kts | 89° |
| 2026-04-29 03:29 | 30.08331 | -91.57011 | 23261 ft | 530 kts | 89° |
| 2026-04-29 03:29 | 30.08242 | -91.52865 | 23022 ft | 501 kts | 89° |
| 2026-04-29 03:30 | 30.08159 | -91.48904 | 21945 ft | 497 kts | 89° |
| 2026-04-29 03:30 | 30.08075 | -91.44933 | 21133 ft | 487 kts | 89° |
| 2026-04-29 03:30 | 30.07991 | -91.41057 | 20295 ft | 479 kts | 89° |
| 2026-04-29 03:30 | 30.07907 | -91.37253 | 19508 ft | 475 kts | 89° |
| 2026-04-29 03:31 | 30.07738 | -91.29723 | 18241 ft | 461 kts | 90° |
| 2026-04-29 03:31 | 30.07654 | -91.26049 | 17599 ft | 455 kts | 90° |
| 2026-04-29 03:31 | 30.07570 | -91.22434 | 16965 ft | 449 kts | 90° |
| 2026-04-29 03:32 | 30.07486 | -91.18834 | 16345 ft | 447 kts | 90° |
| 2026-04-29 03:32 | 30.07402 | -91.15293 | 16022 ft | 441 kts | 90° |
| 2026-04-29 03:32 | 30.07317 | -91.11725 | 15465 ft | 460 kts | 91° |
| 2026-04-29 03:32 | 30.07227 | -91.08015 | 15178 ft | 458 kts | 91° |
| 2026-04-29 03:33 | 30.07138 | -91.04390 | 14863 ft | 455 kts | 91° |
| 2026-04-29 03:33 | 30.07047 | -91.00749 | 14543 ft | 452 kts | 91° |
| 2026-04-29 03:33 | 30.07180 | -90.97182 | 14203 ft | 434 kts | 81° |
| 2026-04-29 03:33 | 30.07653 | -90.93861 | 13853 ft | 408 kts | 79° |
| 2026-04-29 03:34 | 30.08122 | -90.90721 | 13474 ft | 386 kts | 79° |
| 2026-04-29 03:34 | 30.08571 | -90.87734 | 13077 ft | 369 kts | 79° |
| 2026-04-29 03:34 | 30.09003 | -90.84860 | 12661 ft | 354 kts | 80° |
| 2026-04-29 03:34 | 30.09428 | -90.82123 | 12222 ft | 342 kts | 78° |
| 2026-04-29 03:35 | 30.09837 | -90.79432 | 11380 ft | 344 kts | 79° |
| 2026-04-29 03:35 | 30.10244 | -90.76807 | 11339 ft | 320 kts | 79° |
| 2026-04-29 03:35 | 30.10628 | -90.74340 | 11093 ft | 308 kts | 79° |
| 2026-04-29 03:35 | 30.11011 | -90.71937 | 10520 ft | 308 kts | 79° |
| 2026-04-29 03:36 | 30.11410 | -90.69508 | 10016 ft | 305 kts | 79° |
| 2026-04-29 03:36 | 30.11816 | -90.67117 | 9514 ft | 302 kts | 79° |
| 2026-04-29 03:36 | 30.12229 | -90.64750 | 9017 ft | 300 kts | 79° |
| 2026-04-29 03:36 | 30.12649 | -90.62402 | 8531 ft | 297 kts | 79° |
| 2026-04-29 03:37 | 30.13071 | -90.60092 | 8050 ft | 294 kts | 79° |
| 2026-04-29 03:37 | 30.13499 | -90.57802 | 7569 ft | 291 kts | 78° |
| 2026-04-29 03:37 | 30.13931 | -90.55530 | 7096 ft | 288 kts | 78° |
| 2026-04-29 03:37 | 30.14364 | -90.53290 | 6625 ft | 285 kts | 78° |
| 2026-04-29 03:38 | 30.14797 | -90.51080 | 6161 ft | 282 kts | 78° |
| 2026-04-29 03:38 | 30.15231 | -90.48886 | 5697 ft | 279 kts | 78° |
| 2026-04-29 03:38 | 30.15661 | -90.46725 | 5235 ft | 276 kts | 78° |
| 2026-04-29 03:38 | 30.16094 | -90.44564 | 4759 ft | 274 kts | 78° |
| 2026-04-29 03:39 | 30.16520 | -90.42435 | 4292 ft | 272 kts | 78° |
| 2026-04-29 03:39 | 30.16944 | -90.40321 | 3823 ft | 269 kts | 77° |
| 2026-04-29 03:39 | 30.17362 | -90.38232 | 3303 ft | 268 kts | 78° |
| 2026-04-29 03:39 | 30.17780 | -90.36144 | 2853 ft | 265 kts | 78° |
| 2026-04-29 03:40 | 30.18190 | -90.34102 | 2394 ft | 263 kts | 79° |
| 2026-04-29 03:40 | 30.18598 | -90.32061 | 2004 ft | 258 kts | 79° |
| 2026-04-29 03:40 | 30.18994 | -90.30093 | 1973 ft | 239 kts | 79° |
| 2026-04-29 03:40 | 30.19357 | -90.28314 | 1980 ft | 220 kts | 79° |
| 2026-04-29 03:41 | 30.19705 | -90.26623 | 1986 ft | 212 kts | 79° |
| 2026-04-29 03:41 | 30.20048 | -90.24960 | 2001 ft | 214 kts | 79° |
| 2026-04-29 03:41 | 30.20392 | -90.23291 | 2000 ft | 215 kts | 79° |
| 2026-04-29 03:41 | 30.20738 | -90.21613 | 1999 ft | 215 kts | 79° |
| 2026-04-29 03:42 | 30.21084 | -90.19936 | 1999 ft | 214 kts | 79° |
| 2026-04-29 03:42 | 30.21432 | -90.18261 | 2000 ft | 213 kts | 79° |
| 2026-04-29 03:42 | 30.21784 | -90.16573 | 2001 ft | 213 kts | 78° |
| 2026-04-29 03:42 | 30.22129 | -90.14920 | 2001 ft | 212 kts | 78° |
| 2026-04-29 03:43 | 30.22478 | -90.13254 | 2002 ft | 212 kts | 78° |
| 2026-04-29 03:43 | 30.22824 | -90.11610 | 2003 ft | 211 kts | 78° |
| 2026-04-29 03:43 | 30.23030 | -90.09946 | 1948 ft | 211 kts | 92° |
| 2026-04-29 03:43 | 30.23103 | -90.08221 | 1728 ft | 214 kts | 85° |
| 2026-04-29 03:44 | 30.23324 | -90.06521 | 1690 ft | 205 kts | 83° |
| 2026-04-29 03:44 | 30.23332 | -90.05029 | 1768 ft | 158 kts | 113° |
| 2026-04-29 03:44 | 30.22703 | -90.04204 | 1688 ft | 128 kts | 155° |
| 2026-04-29 03:44 | 30.21910 | -90.03928 | 1674 ft | 114 kts | 171° |
| 2026-04-29 03:45 | 30.21127 | -90.03793 | 1709 ft | 115 kts | 174° |
| 2026-04-29 03:45 | 30.20295 | -90.03691 | 1727 ft | 122 kts | 175° |
| 2026-04-29 03:45 | 30.19444 | -90.03606 | 1705 ft | 121 kts | 176° |
| 2026-04-29 03:45 | 30.18626 | -90.03532 | 1683 ft | 118 kts | 176° |
| 2026-04-29 03:46 | 30.17805 | -90.03458 | 1681 ft | 118 kts | 176° |
| 2026-04-29 03:46 | 30.16998 | -90.03386 | 1674 ft | 117 kts | 176° |
| 2026-04-29 03:46 | 30.16176 | -90.03312 | 1665 ft | 117 kts | 176° |
| 2026-04-29 03:46 | 30.15358 | -90.03237 | 1655 ft | 117 kts | 176° |
| 2026-04-29 03:47 | 30.14553 | -90.03164 | 1646 ft | 117 kts | 176° |
| 2026-04-29 03:47 | 30.13733 | -90.03088 | 1637 ft | 117 kts | 176° |
| 2026-04-29 03:47 | 30.12921 | -90.03014 | 1628 ft | 117 kts | 176° |
| 2026-04-29 03:47 | 30.12100 | -90.02934 | 1563 ft | 123 kts | 175° |
| 2026-04-29 03:48 | 30.11238 | -90.02906 | 1374 ft | 124 kts | 182° |
| 2026-04-29 03:48 | 30.10373 | -90.02940 | 1091 ft | 123 kts | 181° |
| 2026-04-29 03:48 | 30.09540 | -90.02971 | 895 ft | 118 kts | 183° |
| 2026-04-29 03:48 | 30.08731 | -90.03031 | 737 ft | 117 kts | 182° |
| 2026-04-29 03:49 | 30.07923 | -90.03061 | 607 ft | 116 kts | 179° |
| 2026-04-29 03:49 | 30.07114 | -90.03033 | 423 ft | 117 kts | 177° |
| 2026-04-29 03:49 | 30.06298 | -90.03001 | 245 ft | 118 kts | 178° |
| 2026-04-29 03:49 | 30.05480 | -90.02998 | 74 ft | 116 kts | 179° |
| 2026-04-29 03:50 | 30.04713 | -90.02985 | 8 ft | 99 kts | 179° |
| 2026-04-29 03:50 | 30.04294 | -90.02975 | 7 ft | 27 kts | 177° |
| 2026-04-29 03:50 | 30.04086 | -90.02965 | 7 ft | 34 kts | 179° |
| 2026-04-29 03:50 | 30.04008 | -90.02923 | 7 ft | 7 kts | 91° |
| 2026-04-29 03:51 | 30.03977 | -90.02859 | 7 ft | 13 kts | 170° |